Time;durP1;ratioP1;P1;durP2;ratioP2;P2;SDS_P1;SDS_P2;PMS_P1;PMS_P2;Temp;Humidity;BMP_temperature;BMP_pressure;BME280_temperature;BME280_humidity;BME280_pressure;Samples;Min_cycle;Max_cycle;Signal;HPM_P1;HPM_P2
2023/08/30 00:00:48;;;;;;;24.98;17.48;;;;;;;-145.00;88.19;73188.69;5035725;28;20413;-76
2023/08/30 00:03:16;;;;;;;26.45;19.20;;;;;;;-145.00;88.19;73192.84;5050325;28;20045;-76
2023/08/30 00:05:43;;;;;;;25.77;18.48;;;;;;;-145.00;89.40;73205.34;5049563;28;20049;-76
2023/08/30 00:08:10;;;;;;;29.25;19.10;;;;;;;-145.00;89.93;73217.84;5052895;28;20045;-75
2023/08/30 00:10:37;;;;;;;30.25;20.17;;;;;;;-145.00;90.16;73230.31;5051259;28;20050;-76
2023/08/30 00:13:04;;;;;;;28.50;19.33;;;;;;;-145.00;90.99;73240.75;5041962;28;20048;-76
2023/08/30 00:15:31;;;;;;;29.27;19.65;;;;;;;-145.00;90.85;73219.91;5045221;28;20045;-75
2023/08/30 00:17:57;;;;;;;27.17;19.08;;;;;;;-145.00;90.79;73205.34;5052655;28;20508;-76
2023/08/30 00:20:25;;;;;;;27.02;18.23;;;;;;;-145.00;89.95;73192.84;5048767;28;20125;-76
2023/08/30 00:22:52;;;;;;;26.13;18.25;;;;;;;-145.00;88.66;73178.28;5044568;28;20048;-76
2023/08/30 00:25:23;;;;;;;26.73;18.67;;;;;;;-145.00;88.02;73178.28;5049961;28;20044;-76
2023/08/30 00:27:49;;;;;;;27.48;18.65;;;;;;;-145.00;88.06;73184.53;5044515;28;20041;-76
2023/08/30 00:30:16;;;;;;;30.20;20.58;;;;;;;-145.00;88.30;73209.50;5043043;28;20041;-76
2023/08/30 00:32:44;;;;;;;26.05;18.50;;;;;;;-145.00;88.39;73190.78;5042130;28;20064;-75
2023/08/30 00:35:11;;;;;;;31.13;20.58;;;;;;;-145.00;88.30;73207.44;5042856;28;20050;-76
2023/08/30 00:37:38;;;;;;;29.92;19.83;;;;;;;-145.00;90.00;73238.66;5053023;28;20056;-76
2023/08/30 00:40:08;;;;;;;26.05;18.20;;;;;;;-145.00;89.69;73219.91;5051911;28;20075;-75
2023/08/30 00:42:34;;;;;;;31.67;19.70;;;;;;;-145.00;90.20;73234.50;5048367;28;20037;-75
2023/08/30 00:45:01;;;;;;;34.47;22.00;;;;;;;-145.00;90.09;73230.31;5041191;28;20067;-76
2023/08/30 00:47:28;;;;;;;33.72;22.10;;;;;;;-145.00;90.26;73246.97;5052048;28;20051;-75
2023/08/30 00:49:54;;;;;;;37.85;24.23;;;;;;;-145.00;90.95;73257.41;5052591;28;20488;-75
2023/08/30 00:52:21;;;;;;;37.50;22.65;;;;;;;-145.00;91.64;73271.97;5045432;28;20049;-75
2023/08/30 00:54:49;;;;;;;37.55;23.48;;;;;;;-145.00;92.52;73280.28;5047164;28;20037;-75
2023/08/30 00:57:17;;;;;;;37.15;22.70;;;;;;;-145.00;92.68;73267.81;5043181;28;20136;-75
2023/08/30 00:59:43;;;;;;;41.28;24.33;;;;;;;-145.00;92.16;73255.31;5045247;28;20501;-76
2023/08/30 01:02:10;;;;;;;48.45;24.35;;;;;;;-145.00;91.63;73251.16;5043119;28;20049;-76
2023/08/30 01:04:37;;;;;;;39.30;22.70;;;;;;;-145.00;90.97;73240.75;5047801;28;20048;-76
2023/08/30 01:07:03;;;;;;;43.08;24.70;;;;;;;-145.00;91.40;73269.88;5051850;28;20049;-75
2023/08/30 01:09:30;;;;;;;42.28;24.13;;;;;;;-145.00;91.38;73259.47;5052740;28;20068;-74
2023/08/30 01:12:05;;;;;;;36.65;22.52;;;;;;;-145.00;91.21;73236.56;5036485;28;20068;-76
2023/08/30 01:14:38;;;;;;;41.92;25.63;;;;;;;-145.00;90.87;73253.22;5038377;28;20488;-75
2023/08/30 01:17:05;;;;;;;;;;;;;;;-145.00;90.92;73255.31;5052694;28;20045;-76
2023/08/30 01:19:42;;;;;;;42.40;23.95;;;;;;;-145.00;90.81;73253.22;5052687;28;19921;-76
2023/08/30 01:22:16;;;;;;;44.65;26.70;;;;;;;-145.00;91.32;73271.97;5046934;28;20052;-75
2023/08/30 01:24:49;;;;;;;38.78;23.42;;;;;;;-145.00;91.88;73253.22;5051051;28;20037;-76
2023/08/30 01:27:19;;;;;;;40.47;23.83;;;;;;;-145.00;90.85;73236.56;5050022;28;20072;-76
2023/08/30 01:29:47;;;;;;;37.63;23.75;;;;;;;-145.00;90.11;73222.00;5043750;28;20041;-76
2023/08/30 01:32:14;;;;;;;42.83;25.33;;;;;;;-145.00;89.52;73203.25;5031221;28;20136;-76
2023/08/30 01:34:42;;;;;;;40.40;23.90;;;;;;;-145.00;88.32;73190.78;5050194;28;20044;-75
2023/08/30 01:37:09;;;;;;;46.55;26.73;;;;;;;-145.00;88.69;73230.31;5038750;28;20049;-76
2023/08/30 01:39:37;;;;;;;42.30;24.40;;;;;;;-145.00;89.47;73226.16;5051222;28;20045;-76
2023/08/30 01:42:06;;;;;;;43.85;24.90;;;;;;;-145.00;90.17;73267.81;5045592;28;20048;-75
2023/08/30 01:44:34;;;;;;;43.03;24.65;;;;;;;-145.00;91.09;73259.47;5043096;28;20519;-76
2023/08/30 01:47:02;;;;;;;47.42;26.55;;;;;;;-145.00;91.84;73284.47;5026422;28;20124;-76
2023/08/30 01:49:32;;;;;;;40.60;24.05;;;;;;;-145.00;91.57;73259.47;5037777;28;20041;-76
2023/08/30 01:51:59;;;;;;;37.72;22.73;;;;;;;-145.00;90.93;73232.41;5047545;28;20048;-76
2023/08/30 01:54:27;;;;;;;40.25;24.17;;;;;;;-145.00;90.06;73213.66;5049756;28;20040;-76
2023/08/30 01:56:54;;;;;;;39.65;22.77;;;;;;;-145.00;88.97;73201.19;5049577;28;20047;-76
2023/08/30 01:59:20;;;;;;;36.55;22.05;;;;;;;-145.00;88.27;73190.78;5046128;28;20045;-76
2023/08/30 02:01:48;;;;;;;45.55;25.80;;;;;;;-145.00;88.41;73238.66;5041221;28;20120;-76
2023/08/30 02:04:15;;;;;;;40.75;23.42;;;;;;;-145.00;89.11;73228.25;5049333;28;20056;-76
2023/08/30 02:06:50;;;;;;;46.78;26.02;;;;;;;-145.00;89.50;73251.16;5049915;28;20041;-76
2023/08/30 02:09:22;;;;;;;43.75;24.70;;;;;;;-145.00;90.00;73265.72;5049423;28;20052;-77
2023/08/30 02:11:51;;;;;;;41.10;24.40;;;;;;;-145.00;90.44;73253.22;5038578;28;20045;-75
2023/08/30 02:14:20;;;;;;;42.10;24.33;;;;;;;-145.00;89.68;73251.16;5040808;28;20042;-76
2023/08/30 02:16:49;;;;;;;38.92;22.73;;;;;;;-145.00;89.39;73226.16;5044506;28;20464;-76
2023/08/30 02:19:20;;;;;;;38.90;22.40;;;;;;;-145.00;88.56;73222.00;5047473;28;20052;-75
2023/08/30 02:21:47;;;;;;;39.53;23.98;;;;;;;-145.00;88.13;73205.34;5046854;28;20049;-76
2023/08/30 02:24:13;;;;;;;39.05;22.88;;;;;;;-145.00;87.93;73213.66;5049306;28;20052;-75
2023/08/30 02:26:40;;;;;;;39.95;22.75;;;;;;;-145.00;87.78;73205.34;5048859;28;20094;-76
2023/08/30 02:29:08;;;;;;;43.50;23.25;;;;;;;-145.00;87.94;73213.66;5048111;28;20381;-75
2023/08/30 02:31:34;;;;;;;38.97;22.33;;;;;;;-145.00;88.08;73213.66;5038491;28;20060;-75
2023/08/30 02:34:02;;;;;;;41.28;23.70;;;;;;;-145.00;88.63;73240.75;5049609;28;20540;-76
2023/08/30 02:36:29;;;;;;;41.38;23.13;;;;;;;-145.00;89.17;73242.81;5049127;28;20053;-75
2023/08/30 02:38:55;;;;;;;41.05;22.65;;;;;;;-145.00;88.65;73222.00;5049147;28;20041;-75
2023/08/30 02:41:22;;;;;;;40.05;22.70;;;;;;;-145.00;88.49;73228.25;5037949;28;20056;-76
2023/08/30 02:43:48;;;;;;;37.58;21.42;;;;;;;-145.00;88.65;73246.97;5049603;28;20060;-76
2023/08/30 02:46:15;;;;;;;41.33;22.45;;;;;;;-145.00;88.35;73238.66;5041577;28;20616;-76
2023/08/30 02:48:41;;;;;;;41.60;23.48;;;;;;;-145.00;87.86;73238.66;5046950;28;20049;-77
2023/08/30 02:51:09;;;;;;;38.15;22.27;;;;;;;-145.00;89.25;73263.63;5050604;28;20056;-75
2023/08/30 02:53:36;;;;;;;49.90;24.48;;;;;;;-145.00;89.68;73276.13;5042847;28;20048;-75
2023/08/30 02:56:02;;;;;;;46.97;23.50;;;;;;;-145.00;89.78;73267.81;5045070;28;20516;-74
2023/08/30 02:58:29;;;;;;;39.97;22.52;;;;;;;-145.00;89.07;73238.66;5054079;28;20131;-75
2023/08/30 03:00:55;;;;;;;45.75;24.17;;;;;;;-145.00;88.86;73244.91;5044461;28;20041;-76
2023/08/30 03:03:22;;;;;;;43.38;24.40;;;;;;;-145.00;88.56;73246.97;5046386;28;20080;-76
2023/08/30 03:05:48;;;;;;;41.97;23.25;;;;;;;-145.00;88.52;73234.50;5053301;28;20051;-76
2023/08/30 03:08:16;;;;;;;43.05;23.77;;;;;;;-145.00;87.95;73255.31;5052699;28;20041;-76
2023/08/30 03:10:43;;;;;;;47.40;24.33;;;;;;;-145.00;89.84;73280.28;5053108;28;20044;-76
2023/08/30 03:13:09;;;;;;;43.75;24.40;;;;;;;-145.00;89.68;73246.97;5049555;28;20049;-76
2023/08/30 03:15:36;;;;;;;45.60;23.35;;;;;;;-145.00;88.99;73249.06;5053337;28;20045;-76
2023/08/30 03:18:02;;;;;;;48.05;25.27;;;;;;;-145.00;89.22;73261.56;5052595;28;20039;-75
2023/08/30 03:20:29;;;;;;;41.70;21.88;;;;;;;-145.00;89.23;73236.56;5048697;28;20501;-75
2023/08/30 03:22:57;;;;;;;49.90;24.98;;;;;;;-145.00;89.34;73251.16;5039320;28;20102;-76
2023/08/30 03:25:25;;;;;;;46.80;23.90;;;;;;;-145.00;90.66;73284.47;5050478;28;20103;-76
2023/08/30 03:27:52;;;;;;;46.08;24.33;;;;;;;-145.00;90.47;73255.31;5052926;28;20041;-76
2023/08/30 03:30:18;;;;;;;50.42;25.45;;;;;;;-145.00;90.31;73274.06;5043852;28;20068;-76
2023/08/30 03:32:45;;;;;;;48.15;24.88;;;;;;;-145.00;89.67;73251.16;5039083;28;20048;-76
2023/08/30 03:35:12;;;;;;;46.03;23.60;;;;;;;-145.00;89.39;73249.06;5052172;28;20049;-76
2023/08/30 03:37:38;;;;;;;46.70;24.77;;;;;;;-145.00;90.49;73296.94;5052764;28;20051;-75
2023/08/30 03:40:06;;;;;;;43.90;23.70;;;;;;;-145.00;89.74;73253.22;5048381;28;20788;-77
2023/08/30 03:42:34;;;;;;;41.85;23.20;;;;;;;-145.00;88.38;73238.66;5048928;28;20496;-75
2023/08/30 03:45:00;;;;;;;50.70;25.15;;;;;;;-145.00;88.19;73255.31;5052527;28;20155;-76
2023/08/30 03:47:26;;;;;;;45.67;24.52;;;;;;;-145.00;88.90;73246.97;5052201;28;20052;-76
2023/08/30 03:49:53;;;;;;;45.28;22.92;;;;;;;-145.00;89.00;73251.16;5052610;28;20045;-75
2023/08/30 03:52:19;;;;;;;43.72;23.65;;;;;;;-145.00;88.86;73251.16;5048808;28;20053;-76
2023/08/30 03:54:46;;;;;;;48.40;25.08;;;;;;;-145.00;88.65;73255.31;5052525;28;20041;-75
2023/08/30 03:57:12;;;;;;;47.25;24.73;;;;;;;-145.00;89.34;73280.28;5049769;28;20083;-75
2023/08/30 03:59:40;;;;;;;42.42;22.58;;;;;;;-145.00;88.98;73251.16;5032011;28;20049;-75
2023/08/30 04:02:07;;;;;;;47.22;24.92;;;;;;;-145.00;88.87;73242.81;5043819;28;20048;-75
2023/08/30 04:04:33;;;;;;;50.33;23.65;;;;;;;-145.00;88.20;73238.66;5053291;28;20423;-75
2023/08/30 04:07:01;;;;;;;46.53;23.67;;;;;;;-145.00;88.55;73246.97;5045410;28;20040;-76
2023/08/30 04:09:27;;;;;;;42.90;23.00;;;;;;;-145.00;87.91;73224.09;5046150;28;20049;-76
2023/08/30 04:11:54;;;;;;;42.08;22.25;;;;;;;-145.00;87.46;73222.00;5043470;28;20046;-75
2023/08/30 04:14:20;;;;;;;45.08;23.13;;;;;;;-145.00;86.83;73213.66;5046413;28;20079;-76
2023/08/30 04:16:48;;;;;;;39.70;21.42;;;;;;;-145.00;86.22;73213.66;5052277;28;20041;-76
2023/08/30 04:19:14;;;;;;;43.80;23.35;;;;;;;-145.00;86.50;73226.16;5051615;28;20041;-76
2023/08/30 04:21:41;;;;;;;41.35;21.98;;;;;;;-145.00;86.48;73217.84;5047014;28;20060;-76
2023/08/30 04:24:07;;;;;;;37.47;21.48;;;;;;;-145.00;86.62;73222.00;5042262;28;20515;-77
2023/08/30 04:26:34;;;;;;;39.05;20.50;;;;;;;-145.00;86.70;73222.00;5049369;28;20048;-75
2023/08/30 04:29:03;;;;;;;40.70;21.27;;;;;;;-145.00;86.44;73219.91;5042390;28;20044;-76
2023/08/30 04:31:29;;;;;;;41.67;21.90;;;;;;;-145.00;86.90;73234.50;5045492;28;20715;-76
2023/08/30 04:33:57;;;;;;;41.90;22.15;;;;;;;-145.00;86.70;73238.66;5051572;28;20037;-75
2023/08/30 04:36:23;;;;;;;42.85;22.33;;;;;;;-145.00;87.68;73249.06;5035624;28;20514;-77
2023/08/30 04:38:50;;;;;;;42.10;21.95;;;;;;;-145.00;87.72;73246.97;5051625;28;20107;-77
2023/08/30 04:41:16;;;;;;;43.00;21.88;;;;;;;-145.00;87.59;73255.31;5048268;28;20040;-76
2023/08/30 04:43:43;;;;;;;43.50;22.50;;;;;;;-145.00;88.86;73280.28;5035182;28;20400;-76
2023/08/30 04:46:09;;;;;;;47.33;24.23;;;;;;;-145.00;88.73;73271.97;5043115;28;20563;-76
2023/08/30 04:48:36;;;;;;;40.80;20.77;;;;;;;-145.00;88.78;73257.41;5050787;28;20052;-75
2023/08/30 04:51:05;;;;;;;46.55;23.30;;;;;;;-145.00;88.58;73276.13;5051270;28;20390;-75
2023/08/30 04:53:32;;;;;;;44.33;22.95;;;;;;;-145.00;87.71;73246.97;5049910;28;20095;-76
2023/08/30 04:55:58;;;;;;;44.38;22.45;;;;;;;-145.00;87.68;73249.06;5048561;28;20041;-75
2023/08/30 04:58:25;;;;;;;48.50;22.90;;;;;;;-145.00;87.09;73232.41;5050904;28;20051;-76
2023/08/30 05:00:51;;;;;;;48.72;23.70;;;;;;;-145.00;87.26;73240.75;5041895;28;20049;-76
2023/08/30 05:03:18;;;;;;;43.72;21.95;;;;;;;-145.00;87.52;73230.31;5033361;28;20042;-77
2023/08/30 05:05:46;;;;;;;42.17;21.50;;;;;;;-145.00;88.23;73253.22;5051096;28;20047;-76
2023/08/30 05:08:14;;;;;;;44.10;22.35;;;;;;;-145.00;87.88;73242.81;5050320;28;20041;-75
2023/08/30 05:10:42;;;;;;;42.00;22.30;;;;;;;-145.00;88.02;73244.91;5051098;28;20049;-76
2023/08/30 05:13:09;;;;;;;43.08;23.08;;;;;;;-145.00;87.97;73251.16;5040272;28;20051;-76
2023/08/30 05:15:36;;;;;;;42.90;22.98;;;;;;;-145.00;88.47;73255.31;5042615;28;20404;-75
2023/08/30 05:18:02;;;;;;;47.90;23.60;;;;;;;-145.00;89.62;73282.38;5050497;28;20037;-75
2023/08/30 05:20:29;;;;;;;44.17;21.88;;;;;;;-145.00;90.48;73271.97;5050943;28;20055;-74
2023/08/30 05:22:56;;;;;;;47.33;23.73;;;;;;;-145.00;90.03;73261.56;5049581;28;20040;-75
2023/08/30 05:25:24;;;;;;;42.97;22.45;;;;;;;-145.00;90.43;73284.47;5047245;28;20041;-76
2023/08/30 05:27:50;;;;;;;43.88;22.65;;;;;;;-145.00;90.06;73267.81;5043398;28;20050;-77
2023/08/30 05:30:17;;;;;;;44.55;23.85;;;;;;;-145.00;89.26;73242.81;5031638;28;20049;-76
2023/08/30 05:32:43;;;;;;;45.40;23.52;;;;;;;-145.00;88.58;73251.16;5039091;28;20048;-76
2023/08/30 05:35:10;;;;;;;42.50;22.98;;;;;;;-145.00;89.25;73259.47;5045136;28;20052;-77
2023/08/30 05:37:36;;;;;;;43.50;23.25;;;;;;;-145.00;89.13;73276.13;5050680;28;20045;-76
2023/08/30 05:40:03;;;;;;;40.25;21.80;;;;;;;-145.00;89.43;73251.16;5041084;28;20048;-76
2023/08/30 05:42:31;;;;;;;44.75;23.45;;;;;;;-145.00;88.71;73222.00;5050320;28;20575;-75
2023/08/30 05:44:58;;;;;;;41.47;22.23;;;;;;;-145.00;88.33;73234.50;5040525;28;20048;-76
2023/08/30 05:47:24;;;;;;;41.67;22.38;;;;;;;-145.00;88.63;73238.66;5049610;28;20049;-76
2023/08/30 05:49:51;;;;;;;43.47;22.95;;;;;;;-145.00;89.72;73269.88;5050363;28;20049;-78
2023/08/30 05:52:18;;;;;;;38.97;21.38;;;;;;;-145.00;88.93;73222.00;5042663;28;20404;-76
2023/08/30 05:54:44;;;;;;;40.30;22.23;;;;;;;-145.00;88.30;73222.00;5049793;28;20051;-76
2023/08/30 05:57:11;;;;;;;42.53;22.30;;;;;;;-145.00;88.30;73234.50;5046327;28;20047;-76
2023/08/30 05:59:38;;;;;;;37.10;21.05;;;;;;;-145.00;87.92;73213.66;5047912;28;20049;-76
2023/08/30 06:02:05;;;;;;;43.90;24.00;;;;;;;-145.00;87.82;73222.00;5043536;28;20049;-78
2023/08/30 06:04:31;;;;;;;44.63;24.88;;;;;;;-145.00;87.69;73222.00;5050188;28;20041;-78
2023/08/30 06:06:58;;;;;;;36.80;21.40;;;;;;;-145.00;86.90;73184.53;5050250;28;20045;-76
2023/08/30 06:09:24;;;;;;;45.10;23.95;;;;;;;-145.00;87.62;73230.31;5049556;28;20484;-78
2023/08/30 06:11:51;;;;;;;40.15;23.13;;;;;;;-145.00;87.11;73197.00;5050676;28;20040;-77
2023/08/30 06:14:17;;;;;;;40.00;22.42;;;;;;;-145.00;86.08;73172.03;5050085;28;20049;-77
2023/08/30 06:16:45;;;;;;;41.60;23.15;;;;;;;-145.00;86.21;73184.53;5050113;28;20040;-77
2023/08/30 06:19:12;;;;;;;43.65;23.25;;;;;;;-145.00;87.39;73201.19;5049675;28;20493;-76
2023/08/30 06:21:38;;;;;;;40.25;23.58;;;;;;;-145.00;87.65;73190.78;5041589;28;20052;-75
2023/08/30 06:24:05;;;;;;;44.05;23.95;;;;;;;-145.00;88.37;73224.09;5050002;28;20048;-76
2023/08/30 06:26:32;;;;;;;47.10;24.80;;;;;;;-145.00;88.64;73234.50;5046378;28;20051;-77
2023/08/30 06:28:59;;;;;;;38.67;23.77;;;;;;;-145.00;88.75;73217.84;5049677;28;20561;-77
2023/08/30 06:31:26;;;;;;;39.50;24.02;;;;;;;-145.00;87.93;73217.84;5033465;28;20054;-76
2023/08/30 06:33:54;;;;;;;37.90;22.80;;;;;;;-145.00;87.11;73192.84;5050217;28;20041;-77
2023/08/30 06:36:22;;;;;;;39.65;22.73;;;;;;;-145.00;86.22;73180.34;5043182;28;20394;-76
2023/08/30 06:38:49;;;;;;;41.80;22.60;;;;;;;-145.00;85.91;73180.34;5049705;28;20064;-76
2023/08/30 06:41:16;;;;;;;38.28;22.80;;;;;;;-145.00;85.10;73142.88;5049654;28;20041;-75
2023/08/30 06:43:42;;;;;;;42.35;24.30;;;;;;;-145.00;86.53;73201.19;5050499;28;20045;-77
2023/08/30 06:46:08;;;;;;;41.35;24.55;;;;;;;-145.00;86.40;73192.84;5049459;28;20045;-76
2023/08/30 06:48:35;;;;;;;43.15;24.65;;;;;;;-145.00;88.19;73211.59;5050093;28;20037;-79
2023/08/30 06:51:03;;;;;;;40.25;23.52;;;;;;;-145.00;88.32;73203.25;5050062;28;20048;-75
2023/08/30 06:53:29;;;;;;;38.10;22.50;;;;;;;-145.00;87.25;73186.59;5041803;28;20048;-78
2023/08/30 06:55:59;;;;;;;39.97;23.98;;;;;;;-145.00;85.29;73147.06;5030185;28;20045;-78
2023/08/30 06:58:26;;;;;;;39.92;24.38;;;;;;;-145.00;85.94;73199.09;5049690;28;20451;-79
2023/08/30 07:00:53;;;;;;;35.08;22.20;;;;;;;-145.00;87.22;73188.69;5041144;28;20124;-79
2023/08/30 07:03:19;;;;;;;33.10;21.38;;;;;;;-145.00;85.86;73161.63;5049691;28;20124;-77
2023/08/30 07:05:47;;;;;;;33.22;21.33;;;;;;;-145.00;85.44;73142.88;5042241;28;20056;-77
2023/08/30 07:08:15;;;;;;;36.00;22.75;;;;;;;-145.00;85.61;73169.94;5040064;28;20052;-79
2023/08/30 07:10:41;;;;;;;38.83;23.23;;;;;;;-145.00;85.33;73157.47;5049951;28;20045;-78
2023/08/30 07:13:10;;;;;;;37.25;23.35;;;;;;;-145.00;84.90;73147.06;5050103;28;20060;-77
2023/08/30 07:15:37;;;;;;;32.53;21.63;;;;;;;-145.00;85.13;73151.22;5050220;28;20063;-78
2023/08/30 07:18:04;;;;;;;29.95;20.77;;;;;;;-145.00;85.18;73180.34;5049823;28;20041;-78
2023/08/30 07:20:30;;;;;;;29.50;20.13;;;;;;;-145.00;83.95;73132.47;5050660;28;20048;-78
2023/08/30 07:22:57;;;;;;;32.25;21.23;;;;;;;-145.00;83.76;73176.19;5050872;28;20048;-78
2023/08/30 07:25:25;;;;;;;29.52;19.45;;;;;;;-145.00;83.98;73147.06;5047248;28;20128;-77
2023/08/30 07:27:51;;;;;;;28.60;20.17;;;;;;;-145.00;83.51;73130.41;5047384;28;20123;-77
2023/08/30 07:30:18;;;;;;;26.65;18.88;;;;;;;-145.00;83.71;73132.47;5038221;28;20049;-78
2023/08/30 07:32:45;;;;;;;27.67;18.45;;;;;;;-145.00;83.14;73117.91;5052212;28;20048;-78
2023/08/30 07:35:11;;;;;;;28.42;18.98;;;;;;;-145.00;79.88;73074.19;5054373;28;20049;-77
2023/08/30 07:37:38;;;;;;;26.20;18.77;;;;;;;-145.00;80.20;73126.22;5054671;28;20041;-78
2023/08/30 07:40:05;;;;;;;25.10;17.83;;;;;;;-145.00;81.05;73124.16;5054025;28;20126;-77
2023/08/30 07:42:33;;;;;;;25.45;18.25;;;;;;;-145.00;81.19;73151.22;5054195;28;20041;-79
2023/08/30 07:44:59;;;;;;;23.50;17.50;;;;;;;-145.00;80.59;73134.56;5053608;28;20045;-78
2023/08/30 07:47:26;;;;;;;23.48;17.50;;;;;;;-145.00;82.01;73167.88;5053112;28;20045;-78
2023/08/30 07:49:52;;;;;;;27.60;18.75;;;;;;;-145.00;83.25;73190.78;5053859;28;20045;-78
2023/08/30 07:52:19;;;;;;;26.80;18.35;;;;;;;-145.00;83.45;73176.19;5053112;28;20051;-78
2023/08/30 07:54:45;;;;;;;25.15;17.83;;;;;;;-145.00;83.20;73167.88;5053435;28;20040;-78
2023/08/30 07:57:12;;;;;;;26.77;18.73;;;;;;;-145.00;82.27;73142.88;5048086;28;20051;-78
2023/08/30 07:59:41;;;;;;;27.13;18.80;;;;;;;-145.00;83.88;73192.84;5053867;28;20048;-79
2023/08/30 08:02:08;;;;;;;25.35;18.98;;;;;;;-145.00;84.40;73176.19;5041466;28;20505;-77
2023/08/30 08:04:35;;;;;;;28.83;18.90;;;;;;;-145.00;83.40;73172.03;5050477;28;20037;-80
2023/08/30 08:07:03;;;;;;;24.58;18.33;;;;;;;-145.00;82.59;73201.19;5045441;28;20045;-76
2023/08/30 08:09:29;;;;;;;24.85;17.73;;;;;;;-145.00;82.26;73169.94;5046283;28;20037;-78
2023/08/30 08:11:57;;;;;;;29.95;19.23;;;;;;;-145.00;81.89;73161.63;5045685;28;20041;-78
2023/08/30 08:14:23;;;;;;;26.20;19.13;;;;;;;-145.00;82.46;73167.88;5044894;28;20045;-79
2023/08/30 08:16:51;;;;;;;24.25;17.48;;;;;;;-145.00;83.40;73172.03;5053463;28;20721;-78
2023/08/30 08:19:18;;;;;;;24.85;18.25;;;;;;;-145.00;83.00;73151.22;5053429;28;20041;-79
2023/08/30 08:21:44;;;;;;;25.70;18.73;;;;;;;-145.00;82.93;73174.13;5053526;28;20052;-78
2023/08/30 08:24:11;;;;;;;22.20;16.45;;;;;;;-145.00;81.79;73132.47;5044734;28;20044;-76
2023/08/30 08:26:37;;;;;;;23.40;16.63;;;;;;;-145.00;81.25;73109.56;5040091;28;20064;-77
2023/08/30 08:29:04;;;;;;;24.92;17.73;;;;;;;-145.00;80.69;73088.75;5032062;28;20050;-75
2023/08/30 08:31:30;;;;;;;23.05;17.60;;;;;;;-145.00;80.42;73097.09;5048716;28;20075;-77
2023/08/30 08:34:10;;;;;;;22.85;17.25;;;;;;;-145.00;79.94;73155.38;5045328;28;20045;-76
2023/08/30 08:36:37;;;;;;;24.45;17.13;;;;;;;-145.00;81.22;73192.84;5044790;28;20045;-77
2023/08/30 08:39:04;;;;;;;25.23;17.75;;;;;;;-145.00;80.76;73161.63;5045122;28;20083;-77
2023/08/30 08:41:36;;;;;;;23.98;17.50;;;;;;;-145.00;81.04;73167.88;5046544;28;20053;-78
2023/08/30 08:44:05;;;;;;;22.13;16.60;;;;;;;-145.00;80.20;73163.72;5048203;28;20046;-75
2023/08/30 08:46:33;;;;;;;20.92;16.25;;;;;;;-145.00;79.76;73124.16;5033585;28;20045;-78
2023/08/30 08:49:03;;;;;;;26.58;16.40;;;;;;;-145.00;78.36;73113.75;5052762;28;20048;-75
2023/08/30 08:51:34;;;;;;;26.35;17.92;;;;;;;-145.00;79.93;73186.59;5053622;28;20045;-76
2023/08/30 08:54:04;;;;;;;25.17;17.95;;;;;;;-145.00;83.04;73203.25;5045766;28;20505;-77
2023/08/30 08:56:31;;;;;;;24.00;17.60;;;;;;;-145.00;82.75;73169.94;5039022;28;20497;-78
2023/08/30 08:58:58;;;;;;;24.75;19.13;;;;;;;-145.00;81.87;73157.47;5042362;28;20049;-78
2023/08/30 09:01:25;;;;;;;25.15;18.63;;;;;;;-145.00;80.42;73144.97;5047164;28;20049;-79
2023/08/30 09:03:52;;;;;;;27.05;18.55;;;;;;;-145.00;80.21;73140.81;5044680;28;20042;-77
2023/08/30 09:06:19;;;;;;;26.00;19.17;;;;;;;-145.00;80.68;73184.53;5052271;28;20500;-78
2023/08/30 09:08:46;;;;;;;24.95;18.55;;;;;;;-145.00;80.60;73174.13;5052937;28;20041;-77
2023/08/30 09:11:13;;;;;;;25.67;17.88;;;;;;;-145.00;80.76;73159.53;5051946;28;20068;-76
2023/08/30 09:13:39;;;;;;;21.90;15.75;;;;;;;-145.00;78.13;73151.22;5052647;28;20439;-77
2023/08/30 09:16:13;;;;;;;20.25;16.10;;;;;;;-145.00;78.66;73070.03;5052756;28;20052;-77
2023/08/30 09:18:40;;;;;;;19.85;15.07;;;;;;;-145.00;74.56;73032.53;5045003;28;20034;-77
2023/08/30 09:21:06;;;;;;;19.00;14.80;;;;;;;-145.00;75.65;73022.13;5044100;28;20500;-77
2023/08/30 09:23:34;;;;;;;18.08;14.07;;;;;;;-145.00;75.15;73005.47;5052317;28;20091;-78
2023/08/30 09:26:02;;;;;;;21.85;14.95;;;;;;;-145.00;73.64;72988.81;5045705;28;20555;-77
2023/08/30 09:28:28;;;;;;;16.13;12.70;;;;;;;-145.00;72.93;73013.81;5052377;28;20063;-79
2023/08/30 09:30:55;;;;;;;13.68;11.50;;;;;;;-145.00;73.81;73034.63;5041291;28;20037;-79
2023/08/30 09:33:22;;;;;;;16.02;12.95;;;;;;;-145.00;74.84;73013.81;5044863;28;20056;-79
2023/08/30 09:35:49;;;;;;;13.70;11.40;;;;;;;-145.00;73.93;73009.66;5051489;28;20041;-79
2023/08/30 09:38:19;;;;;;;14.35;11.43;;;;;;;-145.00;72.00;72976.34;5044231;28;20037;-77
2023/08/30 09:40:46;;;;;;;12.07;10.55;;;;;;;-145.00;70.11;72886.81;5051933;28;20052;-77
2023/08/30 09:43:15;;;;;;;11.40;9.52;;;;;;;-145.00;67.48;72824.38;5051136;28;20512;-77
2023/08/30 09:45:42;;;;;;;10.20;9.10;;;;;;;-145.00;64.85;72809.78;5051785;28;20041;-77
2023/08/30 09:48:09;;;;;;;12.07;9.65;;;;;;;-145.00;66.11;72807.72;5050965;28;20095;-77
2023/08/30 09:50:37;;;;;;;10.05;8.63;;;;;;;-145.00;66.68;72793.13;5052084;28;20455;-78
2023/08/30 09:53:07;;;;;;;13.75;10.30;;;;;;;-145.00;68.54;72788.97;5051133;28;20045;-78
2023/08/30 09:55:35;;;;;;;10.07;8.85;;;;;;;-145.00;67.05;72755.66;5046199;28;20087;-77
2023/08/30 09:58:04;;;;;;;10.85;8.52;;;;;;;-145.00;65.08;72857.66;5047574;28;20044;-75
2023/08/30 10:00:32;;;;;;;9.95;7.55;;;;;;;-145.00;61.26;72768.16;5039147;28;20049;-78
2023/08/30 10:02:59;;;;;;;9.52;6.80;;;;;;;-145.00;60.45;72745.25;5051219;28;20053;-79
2023/08/30 10:05:26;;;;;;;20.88;18.77;;;;;;;-145.00;60.93;72730.69;5050941;28;20037;-79
2023/08/30 10:07:54;;;;;;;9.15;7.47;;;;;;;-145.00;62.01;72714.03;5051056;28;20044;-80
2023/08/30 10:10:20;;;;;;;9.85;8.07;;;;;;;-145.00;62.23;72689.06;5051045;28;20493;-80
2023/08/30 10:12:47;;;;;;;9.38;7.22;;;;;;;-145.00;61.91;72776.47;5051248;28;20657;-79
2023/08/30 10:15:14;;;;;;;9.55;7.20;;;;;;;-145.00;59.02;72730.69;5050576;28;20048;-79
2023/08/30 10:17:45;;;;;;;9.82;8.32;;;;;;;-145.00;62.00;72751.50;5050852;28;20055;-79
2023/08/30 10:20:12;;;;;;;6.57;5.85;;;;;;;-145.00;61.37;72726.53;5050392;28;20124;-79
2023/08/30 10:22:41;;;;;;;7.97;6.00;;;;;;;-145.00;62.45;72701.53;5042511;28;20492;-78
2023/08/30 10:25:12;;;;;;;7.28;6.28;;;;;;;-145.00;60.26;72699.47;5040495;28;20056;-80
2023/08/30 10:27:42;;;;;;;8.57;5.88;;;;;;;-145.00;61.01;72780.66;5045894;28;20044;-78
2023/08/30 10:30:10;;;;;;;8.48;6.22;;;;;;;-145.00;63.47;72768.16;5041607;28;20049;-76
2023/08/30 10:32:41;;;;;;;6.35;5.13;;;;;;;-145.00;63.01;72716.13;5050575;28;20049;-78
2023/08/30 10:35:11;;;;;;;7.28;6.30;;;;;;;-145.00;60.97;72801.47;5050043;28;20049;-79
2023/08/30 10:37:37;;;;;;;6.60;4.97;;;;;;;-145.00;59.71;72797.31;5050590;28;20393;-79
2023/08/30 10:40:05;;;;;;;4.70;4.10;;;;;;;-145.00;59.71;72809.78;5050195;28;20052;-78
2023/08/30 10:42:32;;;;;;;5.78;4.20;;;;;;;-145.00;58.27;72751.50;5050787;28;20045;-77
2023/08/30 10:45:02;;;;;;;5.90;4.70;;;;;;;-145.00;60.05;72811.88;5050367;28;20033;-78
2023/08/30 10:47:30;;;;;;;5.97;4.50;;;;;;;-145.00;58.96;72739.00;5050701;28;20043;-78
2023/08/30 10:49:59;;;;;;;7.93;4.38;;;;;;;-145.00;60.76;72759.81;5050274;28;20048;-78
2023/08/30 10:52:27;;;;;;;5.47;4.88;;;;;;;-145.00;60.35;72707.78;5044749;28;20049;-78
2023/08/30 10:55:05;;;;;;;5.00;4.00;;;;;;;-145.00;57.92;72689.06;5052592;28;20041;-78
2023/08/30 10:57:33;;;;;;;6.45;4.35;;;;;;;-145.00;60.07;72749.41;5040271;28;20037;-77
2023/08/30 11:00:10;;;;;;;6.30;4.30;;;;;;;-145.00;58.65;72726.53;5042230;28;20049;-77
2023/08/30 11:02:37;;;;;;;3.60;2.78;;;;;;;-145.00;55.83;72793.13;5051611;28;20041;-79
2023/08/30 11:05:07;;;;;;;3.33;2.50;;;;;;;-145.00;56.22;72726.53;5051341;28;20079;-77